sensor_id;sensor_type;location;lat;lon;timestamp;P1;durP1;ratioP1;P2;durP2;ratioP2
11935;SDS011;6027;48.576;9.180;2023-12-20T00:00:40;1.40;;;1.30;;
11935;SDS011;6027;48.576;9.180;2023-12-20T00:03:05;1.30;;;1.20;;
11935;SDS011;6027;48.576;9.180;2023-12-20T00:05:31;1.23;;;1.10;;
11935;SDS011;6027;48.576;9.180;2023-12-20T00:07:57;2.00;;;1.20;;
11935;SDS011;6027;48.576;9.180;2023-12-20T00:10:23;1.20;;;1.10;;
11935;SDS011;6027;48.576;9.180;2023-12-20T00:12:48;1.30;;;1.20;;
11935;SDS011;6027;48.576;9.180;2023-12-20T00:15:13;1.37;;;1.20;;
11935;SDS011;6027;48.576;9.180;2023-12-20T00:17:39;1.23;;;1.13;;
11935;SDS011;6027;48.576;9.180;2023-12-20T00:20:05;1.60;;;1.10;;
11935;SDS011;6027;48.576;9.180;2023-12-20T00:22:31;1.27;;;1.17;;
11935;SDS011;6027;48.576;9.180;2023-12-20T00:24:56;0.90;;;0.90;;
11935;SDS011;6027;48.576;9.180;2023-12-20T00:27:22;1.43;;;0.93;;
11935;SDS011;6027;48.576;9.180;2023-12-20T00:29:48;1.17;;;1.10;;
11935;SDS011;6027;48.576;9.180;2023-12-20T00:32:15;0.93;;;0.90;;
11935;SDS011;6027;48.576;9.180;2023-12-20T00:34:41;0.80;;;0.80;;
11935;SDS011;6027;48.576;9.180;2023-12-20T00:37:06;0.80;;;0.80;;
11935;SDS011;6027;48.576;9.180;2023-12-20T00:39:31;1.40;;;1.10;;
11935;SDS011;6027;48.576;9.180;2023-12-20T00:41:58;0.98;;;0.88;;
11935;SDS011;6027;48.576;9.180;2023-12-20T00:44:23;0.90;;;0.90;;
11935;SDS011;6027;48.576;9.180;2023-12-20T00:46:48;1.00;;;1.00;;
11935;SDS011;6027;48.576;9.180;2023-12-20T00:49:14;1.27;;;1.13;;
11935;SDS011;6027;48.576;9.180;2023-12-20T00:51:40;1.30;;;1.20;;
11935;SDS011;6027;48.576;9.180;2023-12-20T00:54:06;1.53;;;1.00;;
11935;SDS011;6027;48.576;9.180;2023-12-20T00:56:31;1.08;;;0.95;;
11935;SDS011;6027;48.576;9.180;2023-12-20T00:58:56;1.40;;;1.30;;
11935;SDS011;6027;48.576;9.180;2023-12-20T01:01:22;1.10;;;1.00;;
11935;SDS011;6027;48.576;9.180;2023-12-20T01:03:48;2.13;;;1.07;;
11935;SDS011;6027;48.576;9.180;2023-12-20T01:06:16;1.23;;;1.07;;
11935;SDS011;6027;48.576;9.180;2023-12-20T01:08:41;1.00;;;1.00;;
11935;SDS011;6027;48.576;9.180;2023-12-20T01:11:07;1.40;;;1.20;;
11935;SDS011;6027;48.576;9.180;2023-12-20T01:13:35;1.37;;;1.27;;
11935;SDS011;6027;48.576;9.180;2023-12-20T01:16:00;1.20;;;1.10;;
11935;SDS011;6027;48.576;9.180;2023-12-20T01:18:26;1.20;;;1.10;;
11935;SDS011;6027;48.576;9.180;2023-12-20T01:20:52;1.30;;;1.20;;
11935;SDS011;6027;48.576;9.180;2023-12-20T01:23:17;1.23;;;1.13;;
11935;SDS011;6027;48.576;9.180;2023-12-20T01:25:43;1.90;;;0.97;;
11935;SDS011;6027;48.576;9.180;2023-12-20T01:28:08;1.30;;;1.20;;
11935;SDS011;6027;48.576;9.180;2023-12-20T01:30:33;0.90;;;0.80;;
11935;SDS011;6027;48.576;9.180;2023-12-20T01:32:59;1.33;;;1.00;;
11935;SDS011;6027;48.576;9.180;2023-12-20T01:35:26;1.80;;;1.10;;
11935;SDS011;6027;48.576;9.180;2023-12-20T01:37:51;1.00;;;0.90;;
11935;SDS011;6027;48.576;9.180;2023-12-20T01:40:17;1.10;;;1.00;;
11935;SDS011;6027;48.576;9.180;2023-12-20T01:42:42;2.10;;;0.97;;
11935;SDS011;6027;48.576;9.180;2023-12-20T01:45:08;0.70;;;0.70;;
11935;SDS011;6027;48.576;9.180;2023-12-20T01:47:35;0.80;;;0.80;;
11935;SDS011;6027;48.576;9.180;2023-12-20T01:50:01;0.90;;;0.87;;
11935;SDS011;6027;48.576;9.180;2023-12-20T01:52:28;0.97;;;0.90;;
11935;SDS011;6027;48.576;9.180;2023-12-20T01:54:54;1.00;;;0.90;;
11935;SDS011;6027;48.576;9.180;2023-12-20T01:57:26;1.20;;;1.10;;
11935;SDS011;6027;48.576;9.180;2023-12-20T01:59:52;2.07;;;1.00;;
11935;SDS011;6027;48.576;9.180;2023-12-20T02:02:18;1.23;;;0.90;;
11935;SDS011;6027;48.576;9.180;2023-12-20T02:04:44;0.83;;;0.83;;
11935;SDS011;6027;48.576;9.180;2023-12-20T02:07:10;1.87;;;1.37;;
11935;SDS011;6027;48.576;9.180;2023-12-20T02:09:36;1.33;;;1.00;;
11935;SDS011;6027;48.576;9.180;2023-12-20T02:12:03;1.10;;;1.00;;
11935;SDS011;6027;48.576;9.180;2023-12-20T02:14:29;2.10;;;1.30;;
11935;SDS011;6027;48.576;9.180;2023-12-20T02:16:54;1.90;;;1.33;;
11935;SDS011;6027;48.576;9.180;2023-12-20T02:19:19;1.43;;;1.23;;
11935;SDS011;6027;48.576;9.180;2023-12-20T02:21:45;3.03;;;1.70;;
11935;SDS011;6027;48.576;9.180;2023-12-20T02:24:11;3.43;;;1.60;;
11935;SDS011;6027;48.576;9.180;2023-12-20T02:26:36;2.00;;;1.50;;
11935;SDS011;6027;48.576;9.180;2023-12-20T02:29:01;1.70;;;1.60;;
11935;SDS011;6027;48.576;9.180;2023-12-20T02:31:27;1.63;;;1.50;;
11935;SDS011;6027;48.576;9.180;2023-12-20T02:33:52;1.87;;;1.63;;
11935;SDS011;6027;48.576;9.180;2023-12-20T02:36:18;2.20;;;1.70;;
11935;SDS011;6027;48.576;9.180;2023-12-20T02:38:43;1.97;;;1.87;;
11935;SDS011;6027;48.576;9.180;2023-12-20T02:41:08;2.87;;;2.03;;
11935;SDS011;6027;48.576;9.180;2023-12-20T02:43:34;2.33;;;2.13;;
11935;SDS011;6027;48.576;9.180;2023-12-20T02:45:59;3.57;;;2.00;;
11935;SDS011;6027;48.576;9.180;2023-12-20T02:48:25;2.27;;;1.90;;
11935;SDS011;6027;48.576;9.180;2023-12-20T02:50:50;1.90;;;1.77;;
11935;SDS011;6027;48.576;9.180;2023-12-20T02:53:16;2.50;;;1.93;;
11935;SDS011;6027;48.576;9.180;2023-12-20T02:55:41;2.27;;;2.00;;
11935;SDS011;6027;48.576;9.180;2023-12-20T02:58:07;2.47;;;2.27;;
11935;SDS011;6027;48.576;9.180;2023-12-20T03:00:32;2.13;;;1.90;;
11935;SDS011;6027;48.576;9.180;2023-12-20T03:02:57;2.20;;;2.00;;
11935;SDS011;6027;48.576;9.180;2023-12-20T03:05:24;2.20;;;2.07;;
11935;SDS011;6027;48.576;9.180;2023-12-20T03:07:50;1.77;;;1.67;;
11935;SDS011;6027;48.576;9.180;2023-12-20T03:10:15;2.57;;;2.30;;
11935;SDS011;6027;48.576;9.180;2023-12-20T03:12:40;2.50;;;2.30;;
11935;SDS011;6027;48.576;9.180;2023-12-20T03:15:06;2.73;;;2.07;;
11935;SDS011;6027;48.576;9.180;2023-12-20T03:17:32;2.30;;;2.03;;
11935;SDS011;6027;48.576;9.180;2023-12-20T03:19:57;2.23;;;1.90;;
11935;SDS011;6027;48.576;9.180;2023-12-20T03:22:23;1.93;;;1.70;;
11935;SDS011;6027;48.576;9.180;2023-12-20T03:24:48;1.70;;;1.60;;
11935;SDS011;6027;48.576;9.180;2023-12-20T03:27:14;1.73;;;1.60;;
11935;SDS011;6027;48.576;9.180;2023-12-20T03:29:39;3.03;;;2.13;;
11935;SDS011;6027;48.576;9.180;2023-12-20T03:32:04;2.47;;;1.60;;
11935;SDS011;6027;48.576;9.180;2023-12-20T03:34:30;1.70;;;1.60;;
11935;SDS011;6027;48.576;9.180;2023-12-20T03:36:56;1.50;;;1.37;;
11935;SDS011;6027;48.576;9.180;2023-12-20T03:39:21;1.73;;;1.60;;
11935;SDS011;6027;48.576;9.180;2023-12-20T03:41:46;1.80;;;1.40;;
11935;SDS011;6027;48.576;9.180;2023-12-20T03:44:12;1.70;;;1.43;;
11935;SDS011;6027;48.576;9.180;2023-12-20T03:46:37;1.77;;;1.57;;
11935;SDS011;6027;48.576;9.180;2023-12-20T03:49:03;2.30;;;1.63;;
11935;SDS011;6027;48.576;9.180;2023-12-20T03:51:28;1.70;;;1.60;;
11935;SDS011;6027;48.576;9.180;2023-12-20T03:53:53;3.83;;;1.40;;
11935;SDS011;6027;48.576;9.180;2023-12-20T03:56:19;4.60;;;1.73;;
11935;SDS011;6027;48.576;9.180;2023-12-20T03:58:44;1.57;;;1.30;;
11935;SDS011;6027;48.576;9.180;2023-12-20T04:01:10;2.90;;;1.70;;
11935;SDS011;6027;48.576;9.180;2023-12-20T04:03:38;1.40;;;1.30;;
11935;SDS011;6027;48.576;9.180;2023-12-20T04:06:04;1.40;;;1.30;;
11935;SDS011;6027;48.576;9.180;2023-12-20T04:08:29;1.30;;;1.20;;
11935;SDS011;6027;48.576;9.180;2023-12-20T04:10:55;1.40;;;0.97;;
11935;SDS011;6027;48.576;9.180;2023-12-20T04:13:20;2.07;;;1.00;;
11935;SDS011;6027;48.576;9.180;2023-12-20T04:15:45;1.20;;;0.87;;
11935;SDS011;6027;48.576;9.180;2023-12-20T04:18:11;1.30;;;0.70;;
11935;SDS011;6027;48.576;9.180;2023-12-20T04:20:36;0.60;;;0.60;;
11935;SDS011;6027;48.576;9.180;2023-12-20T04:23:02;1.50;;;0.60;;
11935;SDS011;6027;48.576;9.180;2023-12-20T04:25:27;0.70;;;0.63;;
11935;SDS011;6027;48.576;9.180;2023-12-20T04:27:52;0.70;;;0.70;;
11935;SDS011;6027;48.576;9.180;2023-12-20T04:30:18;3.17;;;0.80;;
11935;SDS011;6027;48.576;9.180;2023-12-20T04:32:43;1.50;;;0.50;;
11935;SDS011;6027;48.576;9.180;2023-12-20T04:35:09;0.60;;;0.57;;
11935;SDS011;6027;48.576;9.180;2023-12-20T04:37:34;0.40;;;0.30;;
11935;SDS011;6027;48.576;9.180;2023-12-20T04:39:59;1.40;;;0.60;;
11935;SDS011;6027;48.576;9.180;2023-12-20T04:42:25;0.90;;;0.50;;
11935;SDS011;6027;48.576;9.180;2023-12-20T04:44:50;0.40;;;0.40;;
11935;SDS011;6027;48.576;9.180;2023-12-20T04:47:15;0.53;;;0.40;;
11935;SDS011;6027;48.576;9.180;2023-12-20T04:49:41;0.50;;;0.40;;
11935;SDS011;6027;48.576;9.180;2023-12-20T04:52:06;0.93;;;0.40;;
11935;SDS011;6027;48.576;9.180;2023-12-20T04:54:31;0.47;;;0.30;;
11935;SDS011;6027;48.576;9.180;2023-12-20T04:56:57;1.73;;;0.70;;
11935;SDS011;6027;48.576;9.180;2023-12-20T04:59:23;0.90;;;0.70;;
11935;SDS011;6027;48.576;9.180;2023-12-20T05:01:49;0.47;;;0.47;;
11935;SDS011;6027;48.576;9.180;2023-12-20T05:04:14;1.20;;;0.50;;
11935;SDS011;6027;48.576;9.180;2023-12-20T05:06:39;1.60;;;0.43;;
11935;SDS011;6027;48.576;9.180;2023-12-20T05:09:05;1.60;;;0.90;;
11935;SDS011;6027;48.576;9.180;2023-12-20T05:11:30;0.80;;;0.70;;
11935;SDS011;6027;48.576;9.180;2023-12-20T05:13:56;8.27;;;7.37;;
11935;SDS011;6027;48.576;9.180;2023-12-20T05:16:21;0.77;;;0.63;;
11935;SDS011;6027;48.576;9.180;2023-12-20T05:18:48;0.70;;;0.70;;
11935;SDS011;6027;48.576;9.180;2023-12-20T05:21:15;1.37;;;0.70;;
11935;SDS011;6027;48.576;9.180;2023-12-20T05:23:40;0.97;;;0.60;;
11935;SDS011;6027;48.576;9.180;2023-12-20T05:26:06;1.10;;;0.80;;
11935;SDS011;6027;48.576;9.180;2023-12-20T05:28:31;1.10;;;0.90;;
11935;SDS011;6027;48.576;9.180;2023-12-20T05:30:57;1.53;;;0.90;;
11935;SDS011;6027;48.576;9.180;2023-12-20T05:33:23;0.70;;;0.70;;
11935;SDS011;6027;48.576;9.180;2023-12-20T05:35:49;0.60;;;0.60;;
11935;SDS011;6027;48.576;9.180;2023-12-20T05:38:15;0.53;;;0.50;;
11935;SDS011;6027;48.576;9.180;2023-12-20T05:40:40;1.67;;;1.03;;
11935;SDS011;6027;48.576;9.180;2023-12-20T05:43:06;2.17;;;1.20;;
11935;SDS011;6027;48.576;9.180;2023-12-20T05:45:31;1.10;;;1.00;;
11935;SDS011;6027;48.576;9.180;2023-12-20T05:47:56;0.50;;;0.50;;
11935;SDS011;6027;48.576;9.180;2023-12-20T05:50:22;1.40;;;0.30;;
11935;SDS011;6027;48.576;9.180;2023-12-20T05:52:47;0.77;;;0.60;;
11935;SDS011;6027;48.576;9.180;2023-12-20T05:55:13;0.70;;;0.53;;
11935;SDS011;6027;48.576;9.180;2023-12-20T05:57:38;0.70;;;0.70;;
11935;SDS011;6027;48.576;9.180;2023-12-20T06:00:10;0.60;;;0.50;;
11935;SDS011;6027;48.576;9.180;2023-12-20T06:02:35;0.50;;;0.50;;
11935;SDS011;6027;48.576;9.180;2023-12-20T06:05:02;0.50;;;0.40;;
11935;SDS011;6027;48.576;9.180;2023-12-20T06:07:29;0.73;;;0.57;;
11935;SDS011;6027;48.576;9.180;2023-12-20T06:09:54;1.03;;;0.50;;
11935;SDS011;6027;48.576;9.180;2023-12-20T06:12:20;0.97;;;0.60;;
11935;SDS011;6027;48.576;9.180;2023-12-20T06:14:45;1.53;;;0.70;;
11935;SDS011;6027;48.576;9.180;2023-12-20T06:17:11;3.50;;;0.60;;
11935;SDS011;6027;48.576;9.180;2023-12-20T06:19:36;0.90;;;0.60;;
11935;SDS011;6027;48.576;9.180;2023-12-20T06:22:02;1.63;;;0.70;;
11935;SDS011;6027;48.576;9.180;2023-12-20T06:24:27;1.70;;;0.40;;
11935;SDS011;6027;48.576;9.180;2023-12-20T06:26:53;0.93;;;0.70;;
11935;SDS011;6027;48.576;9.180;2023-12-20T06:29:20;1.20;;;0.73;;
11935;SDS011;6027;48.576;9.180;2023-12-20T06:31:45;1.70;;;1.17;;
11935;SDS011;6027;48.576;9.180;2023-12-20T06:34:10;3.90;;;1.60;;
11935;SDS011;6027;48.576;9.180;2023-12-20T06:36:36;2.30;;;1.20;;
11935;SDS011;6027;48.576;9.180;2023-12-20T06:39:01;4.20;;;1.40;;
11935;SDS011;6027;48.576;9.180;2023-12-20T06:41:27;2.10;;;1.27;;
11935;SDS011;6027;48.576;9.180;2023-12-20T06:43:53;3.63;;;1.03;;
11935;SDS011;6027;48.576;9.180;2023-12-20T06:46:18;2.23;;;1.60;;
11935;SDS011;6027;48.576;9.180;2023-12-20T06:48:44;2.47;;;1.67;;
11935;SDS011;6027;48.576;9.180;2023-12-20T06:51:14;3.53;;;1.97;;
11935;SDS011;6027;48.576;9.180;2023-12-20T06:53:41;2.25;;;1.60;;
11935;SDS011;6027;48.576;9.180;2023-12-20T06:56:06;2.30;;;1.60;;
11935;SDS011;6027;48.576;9.180;2023-12-20T06:58:32;2.90;;;1.53;;
11935;SDS011;6027;48.576;9.180;2023-12-20T07:00:58;1.57;;;1.47;;
11935;SDS011;6027;48.576;9.180;2023-12-20T07:03:23;1.80;;;1.70;;
11935;SDS011;6027;48.576;9.180;2023-12-20T07:05:48;2.63;;;1.80;;
11935;SDS011;6027;48.576;9.180;2023-12-20T07:08:14;2.77;;;1.87;;
11935;SDS011;6027;48.576;9.180;2023-12-20T07:10:43;2.40;;;1.93;;
11935;SDS011;6027;48.576;9.180;2023-12-20T07:13:08;3.63;;;2.50;;
11935;SDS011;6027;48.576;9.180;2023-12-20T07:15:34;1.60;;;1.50;;
11935;SDS011;6027;48.576;9.180;2023-12-20T07:18:00;4.67;;;1.80;;
11935;SDS011;6027;48.576;9.180;2023-12-20T07:20:26;2.47;;;1.90;;
11935;SDS011;6027;48.576;9.180;2023-12-20T07:22:51;2.60;;;1.80;;
11935;SDS011;6027;48.576;9.180;2023-12-20T07:25:17;4.07;;;2.37;;
11935;SDS011;6027;48.576;9.180;2023-12-20T07:27:42;4.03;;;1.83;;
11935;SDS011;6027;48.576;9.180;2023-12-20T07:30:08;3.50;;;2.00;;
11935;SDS011;6027;48.576;9.180;2023-12-20T07:32:34;2.50;;;1.90;;
11935;SDS011;6027;48.576;9.180;2023-12-20T07:34:59;1.90;;;1.80;;
11935;SDS011;6027;48.576;9.180;2023-12-20T07:37:24;2.80;;;2.37;;
11935;SDS011;6027;48.576;9.180;2023-12-20T07:39:50;4.47;;;2.60;;
11935;SDS011;6027;48.576;9.180;2023-12-20T07:42:16;3.60;;;2.00;;
11935;SDS011;6027;48.576;9.180;2023-12-20T07:44:41;4.00;;;2.10;;
11935;SDS011;6027;48.576;9.180;2023-12-20T07:47:07;2.60;;;2.27;;
11935;SDS011;6027;48.576;9.180;2023-12-20T07:49:32;3.93;;;2.63;;
11935;SDS011;6027;48.576;9.180;2023-12-20T07:51:57;5.33;;;3.63;;
11935;SDS011;6027;48.576;9.180;2023-12-20T07:54:23;7.40;;;3.80;;
11935;SDS011;6027;48.576;9.180;2023-12-20T07:56:48;3.73;;;2.93;;
11935;SDS011;6027;48.576;9.180;2023-12-20T07:59:14;3.00;;;2.77;;
11935;SDS011;6027;48.576;9.180;2023-12-20T08:01:39;4.00;;;1.87;;
11935;SDS011;6027;48.576;9.180;2023-12-20T08:04:06;0.90;;;0.90;;
11935;SDS011;6027;48.576;9.180;2023-12-20T08:06:31;1.10;;;1.00;;
11935;SDS011;6027;48.576;9.180;2023-12-20T08:08:57;1.10;;;0.97;;
11935;SDS011;6027;48.576;9.180;2023-12-20T08:11:22;0.70;;;0.70;;
11935;SDS011;6027;48.576;9.180;2023-12-20T08:13:47;0.93;;;0.80;;
11935;SDS011;6027;48.576;9.180;2023-12-20T08:16:13;2.33;;;1.00;;
11935;SDS011;6027;48.576;9.180;2023-12-20T08:18:40;1.30;;;1.20;;
11935;SDS011;6027;48.576;9.180;2023-12-20T08:21:07;1.10;;;0.90;;
11935;SDS011;6027;48.576;9.180;2023-12-20T08:23:36;0.83;;;0.80;;
11935;SDS011;6027;48.576;9.180;2023-12-20T08:26:05;0.70;;;0.70;;
11935;SDS011;6027;48.576;9.180;2023-12-20T08:28:33;1.17;;;0.83;;
11935;SDS011;6027;48.576;9.180;2023-12-20T08:30:59;1.13;;;0.90;;
11935;SDS011;6027;48.576;9.180;2023-12-20T08:33:25;0.70;;;0.70;;
11935;SDS011;6027;48.576;9.180;2023-12-20T08:35:50;1.73;;;1.30;;
11935;SDS011;6027;48.576;9.180;2023-12-20T08:38:15;2.33;;;0.80;;
11935;SDS011;6027;48.576;9.180;2023-12-20T08:40:42;0.80;;;0.80;;
11935;SDS011;6027;48.576;9.180;2023-12-20T08:43:08;0.83;;;0.83;;
11935;SDS011;6027;48.576;9.180;2023-12-20T08:45:33;1.87;;;0.80;;
11935;SDS011;6027;48.576;9.180;2023-12-20T08:47:59;2.03;;;0.77;;
11935;SDS011;6027;48.576;9.180;2023-12-20T08:50:25;1.90;;;0.73;;
11935;SDS011;6027;48.576;9.180;2023-12-20T08:52:50;1.03;;;0.87;;
11935;SDS011;6027;48.576;9.180;2023-12-20T08:55:16;0.80;;;0.80;;
11935;SDS011;6027;48.576;9.180;2023-12-20T08:57:43;1.50;;;0.80;;
11935;SDS011;6027;48.576;9.180;2023-12-20T09:00:09;3.27;;;2.40;;
11935;SDS011;6027;48.576;9.180;2023-12-20T09:02:34;5.00;;;3.00;;
11935;SDS011;6027;48.576;9.180;2023-12-20T09:05:04;7.47;;;3.80;;
11935;SDS011;6027;48.576;9.180;2023-12-20T09:07:29;2.23;;;1.60;;
11935;SDS011;6027;48.576;9.180;2023-12-20T09:09:58;2.23;;;1.50;;
11935;SDS011;6027;48.576;9.180;2023-12-20T09:12:24;2.13;;;1.80;;
11935;SDS011;6027;48.576;9.180;2023-12-20T09:14:50;4.00;;;1.87;;
11935;SDS011;6027;48.576;9.180;2023-12-20T09:17:17;2.10;;;1.50;;
11935;SDS011;6027;48.576;9.180;2023-12-20T09:19:43;2.90;;;2.07;;
11935;SDS011;6027;48.576;9.180;2023-12-20T09:22:09;4.97;;;3.77;;
11935;SDS011;6027;48.576;9.180;2023-12-20T09:24:34;8.13;;;5.37;;
11935;SDS011;6027;48.576;9.180;2023-12-20T09:27:00;2.03;;;1.80;;
11935;SDS011;6027;48.576;9.180;2023-12-20T09:29:25;3.83;;;2.00;;
11935;SDS011;6027;48.576;9.180;2023-12-20T09:31:51;9.67;;;5.23;;
11935;SDS011;6027;48.576;9.180;2023-12-20T09:34:16;8.93;;;7.87;;
11935;SDS011;6027;48.576;9.180;2023-12-20T09:36:44;16.10;;;10.80;;
11935;SDS011;6027;48.576;9.180;2023-12-20T09:39:16;12.60;;;8.83;;
11935;SDS011;6027;48.576;9.180;2023-12-20T09:41:56;4.03;;;2.20;;
11935;SDS011;6027;48.576;9.180;2023-12-20T09:44:26;2.93;;;1.30;;
11935;SDS011;6027;48.576;9.180;2023-12-20T09:46:51;5.03;;;1.90;;
11935;SDS011;6027;48.576;9.180;2023-12-20T09:49:19;4.93;;;2.50;;
11935;SDS011;6027;48.576;9.180;2023-12-20T09:51:46;4.73;;;2.07;;
11935;SDS011;6027;48.576;9.180;2023-12-20T09:54:12;6.83;;;1.83;;
11935;SDS011;6027;48.576;9.180;2023-12-20T09:56:39;3.47;;;1.30;;
11935;SDS011;6027;48.576;9.180;2023-12-20T09:59:04;3.83;;;1.33;;
11935;SDS011;6027;48.576;9.180;2023-12-20T10:01:30;3.10;;;1.20;;
11935;SDS011;6027;48.576;9.180;2023-12-20T10:03:56;3.90;;;1.70;;
11935;SDS011;6027;48.576;9.180;2023-12-20T10:06:25;3.83;;;1.40;;
11935;SDS011;6027;48.576;9.180;2023-12-20T10:08:50;4.53;;;1.50;;
11935;SDS011;6027;48.576;9.180;2023-12-20T10:11:16;4.87;;;1.50;;
11935;SDS011;6027;48.576;9.180;2023-12-20T10:13:42;3.30;;;1.30;;
11935;SDS011;6027;48.576;9.180;2023-12-20T10:16:08;3.83;;;1.60;;
11935;SDS011;6027;48.576;9.180;2023-12-20T10:18:33;6.00;;;1.70;;
11935;SDS011;6027;48.576;9.180;2023-12-20T10:21:00;3.63;;;1.60;;
11935;SDS011;6027;48.576;9.180;2023-12-20T10:23:25;2.83;;;1.40;;
11935;SDS011;6027;48.576;9.180;2023-12-20T10:26:00;4.23;;;1.60;;
11935;SDS011;6027;48.576;9.180;2023-12-20T10:28:25;4.60;;;1.70;;
11935;SDS011;6027;48.576;9.180;2023-12-20T10:30:54;3.93;;;1.40;;
11935;SDS011;6027;48.576;9.180;2023-12-20T10:33:26;3.20;;;1.43;;
11935;SDS011;6027;48.576;9.180;2023-12-20T10:35:53;2.63;;;1.50;;
11935;SDS011;6027;48.576;9.180;2023-12-20T10:38:20;6.77;;;1.90;;
11935;SDS011;6027;48.576;9.180;2023-12-20T10:40:45;3.10;;;1.67;;
11935;SDS011;6027;48.576;9.180;2023-12-20T10:43:11;4.17;;;1.47;;
11935;SDS011;6027;48.576;9.180;2023-12-20T10:45:37;3.20;;;1.23;;
11935;SDS011;6027;48.576;9.180;2023-12-20T10:48:03;3.53;;;1.50;;
11935;SDS011;6027;48.576;9.180;2023-12-20T10:50:29;3.10;;;1.47;;
11935;SDS011;6027;48.576;9.180;2023-12-20T10:52:56;3.70;;;1.40;;
11935;SDS011;6027;48.576;9.180;2023-12-20T10:55:22;2.33;;;1.10;;
11935;SDS011;6027;48.576;9.180;2023-12-20T10:57:51;2.87;;;1.20;;
11935;SDS011;6027;48.576;9.180;2023-12-20T11:00:18;2.00;;;1.10;;
11935;SDS011;6027;48.576;9.180;2023-12-20T11:02:46;3.13;;;1.20;;
11935;SDS011;6027;48.576;9.180;2023-12-20T11:08:32;2.77;;;1.23;;
11935;SDS011;6027;48.576;9.180;2023-12-20T11:11:06;4.03;;;1.40;;
11935;SDS011;6027;48.576;9.180;2023-12-20T11:13:40;3.03;;;1.20;;
11935;SDS011;6027;48.576;9.180;2023-12-20T11:16:13;2.50;;;1.27;;
11935;SDS011;6027;48.576;9.180;2023-12-20T11:18:40;3.13;;;0.97;;
11935;SDS011;6027;48.576;9.180;2023-12-20T11:21:06;2.40;;;1.13;;
11935;SDS011;6027;48.576;9.180;2023-12-20T11:23:34;3.60;;;1.45;;
11935;SDS011;6027;48.576;9.180;2023-12-20T11:26:00;4.03;;;1.00;;
11935;SDS011;6027;48.576;9.180;2023-12-20T11:28:27;3.53;;;2.10;;
11935;SDS011;6027;48.576;9.180;2023-12-20T11:30:59;5.43;;;3.20;;
11935;SDS011;6027;48.576;9.180;2023-12-20T11:33:26;7.57;;;6.27;;
11935;SDS011;6027;48.576;9.180;2023-12-20T11:35:55;5.50;;;2.70;;
11935;SDS011;6027;48.576;9.180;2023-12-20T11:38:21;3.43;;;1.50;;
11935;SDS011;6027;48.576;9.180;2023-12-20T11:40:48;4.13;;;1.53;;
11935;SDS011;6027;48.576;9.180;2023-12-20T11:43:30;2.30;;;1.07;;
11935;SDS011;6027;48.576;9.180;2023-12-20T11:45:56;4.17;;;1.60;;
11935;SDS011;6027;48.576;9.180;2023-12-20T11:48:29;3.73;;;1.33;;
11935;SDS011;6027;48.576;9.180;2023-12-20T11:50:56;3.93;;;1.40;;
11935;SDS011;6027;48.576;9.180;2023-12-20T11:53:21;5.37;;;1.77;;
11935;SDS011;6027;48.576;9.180;2023-12-20T11:55:48;3.07;;;1.50;;
11935;SDS011;6027;48.576;9.180;2023-12-20T11:58:14;2.37;;;1.00;;
11935;SDS011;6027;48.576;9.180;2023-12-20T12:00:41;4.57;;;1.33;;
11935;SDS011;6027;48.576;9.180;2023-12-20T12:03:09;3.80;;;1.30;;
11935;SDS011;6027;48.576;9.180;2023-12-20T12:05:35;5.10;;;1.40;;
11935;SDS011;6027;48.576;9.180;2023-12-20T12:08:01;4.23;;;1.80;;
11935;SDS011;6027;48.576;9.180;2023-12-20T12:10:28;4.53;;;1.53;;
11935;SDS011;6027;48.576;9.180;2023-12-20T12:12:54;2.97;;;1.37;;
11935;SDS011;6027;48.576;9.180;2023-12-20T12:15:20;4.20;;;1.33;;
11935;SDS011;6027;48.576;9.180;2023-12-20T12:17:53;2.50;;;1.30;;
11935;SDS011;6027;48.576;9.180;2023-12-20T12:20:22;3.03;;;1.30;;
11935;SDS011;6027;48.576;9.180;2023-12-20T12:23:00;2.33;;;1.30;;
11935;SDS011;6027;48.576;9.180;2023-12-20T12:25:28;4.53;;;1.80;;
11935;SDS011;6027;48.576;9.180;2023-12-20T12:27:55;5.07;;;1.97;;
11935;SDS011;6027;48.576;9.180;2023-12-20T12:30:21;4.43;;;2.70;;
11935;SDS011;6027;48.576;9.180;2023-12-20T12:32:47;7.10;;;3.67;;
11935;SDS011;6027;48.576;9.180;2023-12-20T12:35:13;7.80;;;3.43;;
11935;SDS011;6027;48.576;9.180;2023-12-20T12:37:41;3.13;;;1.63;;
11935;SDS011;6027;48.576;9.180;2023-12-20T12:40:09;4.03;;;1.70;;
11935;SDS011;6027;48.576;9.180;2023-12-20T12:42:36;5.40;;;2.70;;
11935;SDS011;6027;48.576;9.180;2023-12-20T12:45:02;4.33;;;1.60;;
11935;SDS011;6027;48.576;9.180;2023-12-20T12:47:27;2.57;;;1.67;;
11935;SDS011;6027;48.576;9.180;2023-12-20T12:49:53;5.47;;;1.40;;
11935;SDS011;6027;48.576;9.180;2023-12-20T12:52:19;4.57;;;1.63;;
11935;SDS011;6027;48.576;9.180;2023-12-20T12:54:45;3.50;;;1.40;;
11935;SDS011;6027;48.576;9.180;2023-12-20T12:57:11;3.53;;;1.37;;
11935;SDS011;6027;48.576;9.180;2023-12-20T12:59:36;3.73;;;1.60;;
11935;SDS011;6027;48.576;9.180;2023-12-20T13:02:02;4.77;;;2.00;;
11935;SDS011;6027;48.576;9.180;2023-12-20T13:04:27;4.33;;;1.60;;
11935;SDS011;6027;48.576;9.180;2023-12-20T13:06:53;4.27;;;1.67;;
11935;SDS011;6027;48.576;9.180;2023-12-20T13:09:19;4.83;;;2.03;;
11935;SDS011;6027;48.576;9.180;2023-12-20T13:11:44;3.33;;;1.70;;
11935;SDS011;6027;48.576;9.180;2023-12-20T13:14:10;4.67;;;1.80;;
11935;SDS011;6027;48.576;9.180;2023-12-20T13:16:40;4.07;;;1.53;;
11935;SDS011;6027;48.576;9.180;2023-12-20T13:19:06;3.70;;;1.67;;
11935;SDS011;6027;48.576;9.180;2023-12-20T13:21:32;5.13;;;1.97;;
11935;SDS011;6027;48.576;9.180;2023-12-20T13:23:57;5.60;;;1.93;;
11935;SDS011;6027;48.576;9.180;2023-12-20T13:26:23;3.07;;;1.50;;
11935;SDS011;6027;48.576;9.180;2023-12-20T13:28:48;5.50;;;2.07;;
11935;SDS011;6027;48.576;9.180;2023-12-20T13:31:14;6.10;;;1.67;;
11935;SDS011;6027;48.576;9.180;2023-12-20T13:33:39;4.43;;;1.80;;
11935;SDS011;6027;48.576;9.180;2023-12-20T13:36:05;5.10;;;1.90;;
11935;SDS011;6027;48.576;9.180;2023-12-20T13:38:31;4.40;;;1.80;;
11935;SDS011;6027;48.576;9.180;2023-12-20T13:40:57;8.40;;;3.90;;
11935;SDS011;6027;48.576;9.180;2023-12-20T13:43:24;6.37;;;1.70;;
11935;SDS011;6027;48.576;9.180;2023-12-20T13:45:49;4.30;;;1.50;;
11935;SDS011;6027;48.576;9.180;2023-12-20T13:48:15;7.47;;;3.90;;
11935;SDS011;6027;48.576;9.180;2023-12-20T13:50:41;5.37;;;1.60;;
11935;SDS011;6027;48.576;9.180;2023-12-20T13:53:06;6.97;;;3.33;;
11935;SDS011;6027;48.576;9.180;2023-12-20T13:55:32;5.13;;;1.90;;
11935;SDS011;6027;48.576;9.180;2023-12-20T13:57:57;3.67;;;1.57;;
11935;SDS011;6027;48.576;9.180;2023-12-20T14:00:23;5.67;;;1.67;;
11935;SDS011;6027;48.576;9.180;2023-12-20T14:02:49;5.43;;;1.80;;
11935;SDS011;6027;48.576;9.180;2023-12-20T14:05:15;7.77;;;1.80;;
11935;SDS011;6027;48.576;9.180;2023-12-20T14:07:44;5.37;;;1.53;;
11935;SDS011;6027;48.576;9.180;2023-12-20T14:10:13;3.77;;;1.80;;
11935;SDS011;6027;48.576;9.180;2023-12-20T14:12:39;4.07;;;1.90;;
11935;SDS011;6027;48.576;9.180;2023-12-20T14:15:05;5.80;;;2.37;;
11935;SDS011;6027;48.576;9.180;2023-12-20T14:17:39;5.53;;;2.30;;
11935;SDS011;6027;48.576;9.180;2023-12-20T14:20:07;4.93;;;2.30;;
11935;SDS011;6027;48.576;9.180;2023-12-20T14:22:33;10.73;;;6.63;;
11935;SDS011;6027;48.576;9.180;2023-12-20T14:24:58;4.47;;;2.30;;
11935;SDS011;6027;48.576;9.180;2023-12-20T14:27:24;4.40;;;1.60;;
11935;SDS011;6027;48.576;9.180;2023-12-20T14:29:52;5.03;;;1.83;;
11935;SDS011;6027;48.576;9.180;2023-12-20T14:32:18;4.03;;;1.43;;
11935;SDS011;6027;48.576;9.180;2023-12-20T14:34:44;4.17;;;1.50;;
11935;SDS011;6027;48.576;9.180;2023-12-20T14:37:09;3.50;;;1.43;;
11935;SDS011;6027;48.576;9.180;2023-12-20T14:39:34;3.87;;;1.97;;
11935;SDS011;6027;48.576;9.180;2023-12-20T14:42:04;5.03;;;2.00;;
11935;SDS011;6027;48.576;9.180;2023-12-20T14:44:29;5.00;;;2.00;;
11935;SDS011;6027;48.576;9.180;2023-12-20T14:46:55;3.27;;;1.50;;
11935;SDS011;6027;48.576;9.180;2023-12-20T14:49:20;4.00;;;1.40;;
11935;SDS011;6027;48.576;9.180;2023-12-20T14:51:46;4.63;;;1.80;;
11935;SDS011;6027;48.576;9.180;2023-12-20T14:54:13;3.90;;;1.47;;
11935;SDS011;6027;48.576;9.180;2023-12-20T14:56:40;2.60;;;1.30;;